Time;durP1;ratioP1;P1;durP2;ratioP2;P2;SDS_P1;SDS_P2;PMS_P1;PMS_P2;Temp;Humidity;BMP_temperature;BMP_pressure;BME280_temperature;BME280_humidity;BME280_pressure;Samples;Min_cycle;Max_cycle;Signal;HPM_P1;HPM_P2
2022/06/24 00:01:38;;;;;;;10.00;6.70;;;;;;;19.93;100.00;99086.78;5055461;28;20194;-84
2022/06/24 00:04:04;;;;;;;8.00;7.17;;;;;;;19.90;100.00;99061.97;5055363;28;20166;-85
2022/06/24 00:06:45;;;;;;;9.57;7.27;;;;;;;19.82;100.00;99063.66;5055254;28;20192;-85
2022/06/24 00:09:12;;;;;;;9.00;7.10;;;;;;;20.00;100.00;99086.78;5054569;28;20322;-86
2022/06/24 00:11:37;;;;;;;10.33;7.00;;;;;;;19.77;100.00;99059.38;5055165;28;20157;-85
2022/06/24 00:14:08;;;;;;;8.57;7.30;;;;;;;20.05;100.00;99089.41;5055269;28;20223;-83
2022/06/24 00:16:53;;;;;;;9.90;6.87;;;;;;;19.52;100.00;99004.53;5055093;28;20227;-84
2022/06/24 00:19:19;;;;;;;11.07;6.93;;;;;;;20.05;100.00;99091.09;5054925;28;20249;-84
2022/06/24 00:22:07;;;;;;;9.83;7.37;;;;;;;19.99;100.00;99094.53;5054847;28;20189;-83
2022/06/24 00:24:35;;;;;;;9.80;7.00;;;;;;;19.81;100.00;99090.19;5053535;28;20219;-83
2022/06/24 00:27:02;;;;;;;8.57;6.73;;;;;;;19.54;100.00;99025.94;5054564;28;20194;-83
2022/06/24 00:29:31;;;;;;;11.30;7.00;;;;;;;19.67;100.00;99047.34;5054098;28;20200;-82
2022/06/24 00:32:00;;;;;;;8.80;7.27;;;;;;;19.92;100.00;99087.63;5055098;28;20169;-82
2022/06/24 00:34:25;;;;;;;9.83;7.10;;;;;;;19.61;100.00;99021.69;5056132;28;20166;-86
2022/06/24 00:36:50;;;;;;;9.43;7.07;;;;;;;19.95;100.00;99074.81;5055658;28;20173;-85
2022/06/24 00:39:16;;;;;;;9.10;7.07;;;;;;;19.87;100.00;99066.22;5053840;28;20174;-85
2022/06/24 00:41:41;;;;;;;11.33;7.20;;;;;;;19.47;100.00;98982.28;5054812;28;20184;-85
2022/06/24 00:44:11;;;;;;;10.97;7.50;;;;;;;20.00;100.00;99062.81;5055130;28;20165;-85
2022/06/24 00:46:41;;;;;;;11.13;7.67;;;;;;;19.50;100.00;98983.16;5055868;28;20169;-84
2022/06/24 00:49:10;;;;;;;13.33;8.20;;;;;;;19.93;100.00;99056.81;5056113;28;20207;-85
2022/06/24 00:51:37;;;;;;;10.77;8.43;;;;;;;19.70;100.00;99029.38;5059997;28;20154;-85
2022/06/24 00:54:11;;;;;;;14.67;8.93;;;;;;;19.90;100.00;99079.94;5062206;28;20188;-85
2022/06/24 00:56:37;;;;;;;17.10;9.87;;;;;;;19.65;100.00;99038.78;5064651;28;20162;-85
2022/06/24 00:59:07;;;;;;;29.97;17.23;;;;;;;19.90;100.00;99071.38;5065259;28;20767;-84
2022/06/24 01:01:35;;;;;;;19.13;11.53;;;;;;;19.80;100.00;99074.78;5063919;28;20169;-85
2022/06/24 01:04:02;;;;;;;21.80;12.73;;;;;;;19.67;100.00;99060.19;5058741;28;20172;-86
2022/06/24 01:06:29;;;;;;;19.83;11.70;;;;;;;18.65;100.00;98902.50;5059279;28;20187;-87
2022/06/24 01:08:55;;;;;;;24.23;14.90;;;;;;;19.67;100.00;99091.00;5057734;28;20225;-84
2022/06/24 01:11:41;;;;;;;20.73;13.20;;;;;;;18.91;100.00;98971.84;5056559;28;20193;-86
2022/06/24 01:14:06;;;;;;;18.93;11.37;;;;;;;19.32;100.00;99045.53;5056553;28;20644;-85
2022/06/24 01:16:32;;;;;;;16.03;10.47;;;;;;;19.35;100.00;99093.47;5054006;28;20259;-84
2022/06/24 01:19:11;;;;;;;19.03;12.23;;;;;;;19.34;100.00;99090.03;5053476;28;20169;-83
2022/06/24 01:21:43;;;;;;;15.67;10.60;;;;;;;19.21;100.00;99088.28;5053836;28;20260;-83
2022/06/24 01:24:18;;;;;;;23.27;14.80;;;;;;;19.22;100.00;99095.13;5053638;28;20651;-84
2022/06/24 01:26:48;;;;;;;24.20;15.23;;;;;;;19.13;100.00;99097.66;5053310;28;20173;-84
2022/06/24 01:29:15;;;;;;;33.17;19.60;;;;;;;19.06;100.00;99095.06;5053056;28;20170;-84
2022/06/24 01:31:42;;;;;;;39.57;22.23;;;;;;;19.01;100.00;99097.59;5053746;28;20185;-84
2022/06/24 01:34:10;;;;;;;33.43;19.40;;;;;;;18.97;100.00;99095.88;5052994;28;20161;-85
2022/06/24 01:36:35;;;;;;;20.23;14.17;;;;;;;18.98;100.00;99097.56;5052738;28;20173;-85
2022/06/24 01:39:02;;;;;;;24.83;14.77;;;;;;;19.07;100.00;99097.63;5052855;28;20524;-84
2022/06/24 01:41:28;;;;;;;29.47;17.97;;;;;;;19.09;100.00;99098.47;5052868;28;20173;-84
2022/06/24 01:43:53;;;;;;;27.13;17.70;;;;;;;19.06;100.00;99105.31;5053025;28;20524;-85
2022/06/24 01:46:19;;;;;;;26.80;16.23;;;;;;;19.02;100.00;99101.00;5052572;28;20630;-85
2022/06/24 01:48:44;;;;;;;31.47;18.90;;;;;;;18.70;100.00;99068.38;5053043;28;20170;-84
2022/06/24 01:51:13;;;;;;;42.87;23.30;;;;;;;18.87;100.00;99096.63;5052683;28;20201;-85
2022/06/24 01:53:38;;;;;;;33.90;19.30;;;;;;;17.70;100.00;98915.59;5054698;28;20169;-85
2022/06/24 01:56:04;;;;;;;21.00;14.13;;;;;;;18.22;100.00;99043.22;5053636;28;20213;-83
2022/06/24 01:58:29;;;;;;;32.03;19.37;;;;;;;18.49;100.00;99080.16;5054277;28;20192;-84
2022/06/24 02:00:55;;;;;;;34.83;17.50;;;;;;;18.60;100.00;99096.47;5054019;28;20711;-84
2022/06/24 02:03:20;;;;;;;27.50;15.73;;;;;;;18.53;100.00;99094.72;5053838;28;20172;-84
2022/06/24 02:05:49;;;;;;;32.90;20.33;;;;;;;18.29;100.00;99042.41;5055313;28;20174;-84
2022/06/24 02:08:15;;;;;;;37.90;22.20;;;;;;;18.61;100.00;99087.94;5054033;28;20209;-84
2022/06/24 02:13:28;;;;;;;36.37;21.07;;;;;;;18.54;100.00;99070.81;5053432;28;20203;-84
2022/06/24 02:15:54;;;;;;;22.20;13.77;;;;;;;18.18;100.00;99097.84;5055288;28;20583;-85
2022/06/24 02:18:19;;;;;;;21.43;12.90;;;;;;;18.23;100.00;99088.50;5051839;28;20657;-84
2022/06/24 02:20:45;;;;;;;17.67;12.03;;;;;;;17.82;100.00;98997.66;5054846;28;20250;-84
2022/06/24 02:23:11;;;;;;;19.87;11.77;;;;;;;18.34;100.00;99103.09;5053127;28;20173;-84
2022/06/24 02:25:36;;;;;;;17.70;12.00;;;;;;;17.82;100.00;99094.97;5053878;28;20552;-84
2022/06/24 02:28:01;;;;;;;21.47;12.17;;;;;;;17.48;100.00;99041.66;5053071;28;20694;-84
2022/06/24 02:30:27;;;;;;;17.50;12.07;;;;;;;17.66;100.00;99055.50;5052707;28;20271;-84
2022/06/24 02:32:53;;;;;;;20.93;12.17;;;;;;;17.74;100.00;99083.78;5053160;28;20181;-84
2022/06/24 02:35:18;;;;;;;21.07;11.90;;;;;;;17.66;100.00;99076.00;5053529;28;20170;-84
2022/06/24 02:37:43;;;;;;;21.03;12.93;;;;;;;17.60;100.00;99069.97;5051868;28;20184;-84
2022/06/24 02:42:55;;;;;;;24.93;13.40;;;;;;;17.01;100.00;99033.44;5052265;28;20617;-85
2022/06/24 02:45:20;;;;;;;19.77;12.90;;;;;;;16.45;100.00;98902.38;5051555;28;20173;-85
2022/06/24 02:47:46;;;;;;;19.93;12.53;;;;;;;17.60;100.00;99085.34;5055054;28;20243;-85
2022/06/24 02:50:11;;;;;;;19.03;13.20;;;;;;;16.99;100.00;98992.50;5052623;28;20204;-85
2022/06/24 02:52:37;;;;;;;20.90;13.70;;;;;;;16.71;100.00;98951.25;5052814;28;20250;-84
2022/06/24 02:55:02;;;;;;;22.00;13.50;;;;;;;17.58;100.00;99092.13;5052604;28;20173;-84
2022/06/24 02:57:27;;;;;;;20.63;13.67;;;;;;;17.44;100.00;99047.59;5052475;28;20166;-83
2022/06/24 02:59:53;;;;;;;20.13;13.07;;;;;;;17.35;100.00;99027.00;5052385;28;20179;-85
2022/06/24 03:02:18;;;;;;;20.93;13.07;;;;;;;17.59;100.00;99094.72;5052213;28;20550;-84
2022/06/24 03:04:44;;;;;;;20.23;12.73;;;;;;;17.89;100.00;99091.59;5052456;28;20162;-85
2022/06/24 03:07:09;;;;;;;17.20;12.10;;;;;;;17.71;100.00;99032.53;5054493;28;20552;-86
2022/06/24 03:09:34;;;;;;;19.33;12.73;;;;;;;18.07;100.00;99096.91;5052136;28;20286;-84
2022/06/24 03:12:00;;;;;;;18.83;12.63;;;;;;;17.50;100.00;99002.44;5052083;28;20196;-84
2022/06/24 03:14:25;;;;;;;19.87;12.73;;;;;;;17.10;100.00;98924.44;5051939;28;20173;-84
2022/06/24 03:16:51;;;;;;;21.73;13.53;;;;;;;16.19;100.00;98787.09;5050205;28;20180;-84
2022/06/24 03:19:16;;;;;;;20.43;12.60;;;;;;;17.45;100.00;99054.41;5050498;28;20185;-84
2022/06/24 03:21:41;;;;;;;19.17;12.67;;;;;;;17.39;100.00;99095.28;5051740;28;20176;-84
2022/06/24 03:24:07;;;;;;;18.70;12.90;;;;;;;16.10;100.00;98914.66;5051553;28;20169;-83
2022/06/24 03:26:32;;;;;;;19.83;13.17;;;;;;;17.24;100.00;99093.41;5051417;28;20170;-83
2022/06/24 03:28:58;;;;;;;19.63;13.33;;;;;;;17.26;100.00;99083.19;5060578;28;20232;-86
2022/06/24 03:31:23;;;;;;;20.23;13.20;;;;;;;17.30;100.00;99092.63;5062555;28;20207;-87
2022/06/24 03:33:49;;;;;;;18.70;12.17;;;;;;;17.23;100.00;99093.38;5059582;28;20299;-85
2022/06/24 03:36:14;;;;;;;20.17;13.23;;;;;;;17.29;100.00;99099.44;5056516;28;20188;-86
2022/06/24 03:38:40;;;;;;;20.77;13.00;;;;;;;16.67;100.00;98998.94;5055978;28;20192;-86
2022/06/24 03:41:06;;;;;;;19.40;13.47;;;;;;;16.60;100.00;98979.22;5058481;28;20184;-85
2022/06/24 03:43:31;;;;;;;19.60;13.50;;;;;;;17.41;100.00;99106.41;5058731;28;20179;-85
2022/06/24 03:46:03;;;;;;;23.90;14.00;;;;;;;17.07;100.00;99006.25;5061930;28;20185;-85
2022/06/24 03:48:30;;;;;;;23.17;13.37;;;;;;;17.67;100.00;99107.59;5063909;28;20168;-85
2022/06/24 03:50:56;;;;;;;19.70;12.80;;;;;;;17.54;100.00;99075.88;5059482;28;20205;-87
2022/06/24 03:53:21;;;;;;;16.83;12.30;;;;;;;16.86;100.00;98985.53;5055676;28;20193;-87
2022/06/24 03:55:51;;;;;;;20.07;12.47;;;;;;;17.13;100.00;99045.53;5051489;28;20721;-87
2022/06/24 03:58:17;;;;;;;22.37;12.77;;;;;;;16.60;100.00;98938.34;5051975;28;20176;-86
2022/06/24 04:00:43;;;;;;;17.93;11.33;;;;;;;16.47;100.00;98898.13;5052377;28;20606;-87
2022/06/24 04:03:12;;;;;;;18.20;11.60;;;;;;;17.43;100.00;99079.13;5050687;28;20180;-85
2022/06/24 04:05:40;;;;;;;18.47;12.03;;;;;;;15.07;100.00;98680.13;5050279;28;20590;-88
2022/06/24 04:08:05;;;;;;;18.33;11.60;;;;;;;17.06;100.00;99042.00;5049760;28;20229;-86
2022/06/24 04:10:33;;;;;;;20.87;12.03;;;;;;;17.78;100.00;99095.75;5051373;28;20193;-85
2022/06/24 04:12:59;;;;;;;17.10;11.50;;;;;;;16.49;100.00;98863.22;5050947;28;20166;-83
2022/06/24 04:15:24;;;;;;;17.87;12.13;;;;;;;15.60;100.00;98668.97;5051553;28;20189;-85
2022/06/24 04:17:50;;;;;;;20.27;12.33;;;;;;;15.68;100.00;98669.06;5052874;28;20711;-86
2022/06/24 04:20:19;;;;;;;19.47;12.10;;;;;;;15.86;100.00;98731.38;5053211;28;20162;-84
2022/06/24 04:22:45;;;;;;;19.63;12.23;;;;;;;17.10;100.00;98908.22;5051283;28;20166;-87
2022/06/24 04:25:11;;;;;;;17.90;11.10;;;;;;;18.40;100.00;99104.00;5052791;28;20170;-87
2022/06/24 04:27:37;;;;;;;15.60;11.57;;;;;;;18.60;100.00;99091.34;5053669;28;20169;-85
2022/06/24 04:30:06;;;;;;;20.53;12.37;;;;;;;18.35;100.00;99064.66;5055149;28;20687;-86
2022/06/24 04:32:31;;;;;;;19.90;12.23;;;;;;;17.92;100.00;98976.38;5056242;28;20177;-86
2022/06/24 04:34:57;;;;;;;20.07;12.67;;;;;;;17.54;100.00;98885.63;5058182;28;20173;-85
2022/06/24 04:37:23;;;;;;;16.10;11.33;;;;;;;18.69;100.00;99096.53;5057984;28;20536;-87
2022/06/24 04:39:49;;;;;;;19.07;12.00;;;;;;;18.28;100.00;99091.97;5057481;28;20170;-88
2022/06/24 04:42:14;;;;;;;17.73;11.53;;;;;;;18.41;100.00;99089.47;5053288;28;20634;-84
2022/06/24 04:44:40;;;;;;;17.23;12.43;;;;;;;16.25;100.00;98717.34;5055176;28;20207;-86
2022/06/24 04:47:05;;;;;;;17.93;11.50;;;;;;;16.23;100.00;98702.03;5055326;28;20174;-87
2022/06/24 04:49:32;;;;;;;17.07;11.50;;;;;;;18.25;100.00;99074.00;5055710;28;20193;-87
2022/06/24 04:51:58;;;;;;;19.33;12.13;;;;;;;17.80;100.00;98958.34;5055649;28;20556;-87
2022/06/24 04:54:23;;;;;;;17.00;11.87;;;;;;;17.38;100.00;98935.78;5054908;28;20157;-88
2022/06/24 04:56:49;;;;;;;21.23;12.27;;;;;;;16.26;100.00;98731.84;5054959;28;20165;-88
2022/06/24 04:59:14;;;;;;;18.40;12.50;;;;;;;16.70;100.00;98728.00;5054643;28;20248;-88
2022/06/24 05:01:40;;;;;;;21.30;13.13;;;;;;;18.50;100.00;98966.53;5053515;28;20295;-87
2022/06/24 05:04:05;;;;;;;20.87;13.77;;;;;;;17.27;100.00;98783.88;5054818;28;20173;-88
2022/06/24 05:06:31;;;;;;;23.00;15.00;;;;;;;17.24;100.00;98827.34;5055391;28;20173;-87
2022/06/24 05:08:57;;;;;;;21.93;15.50;;;;;;;19.28;100.00;99089.16;5054441;28;20355;-87
2022/06/24 05:11:23;;;;;;;20.83;14.60;;;;;;;17.44;100.00;98749.00;5053635;28;20576;-89
2022/06/24 05:13:48;;;;;;;24.87;14.90;;;;;;;19.17;100.00;98968.47;5055040;28;20610;-87
2022/06/24 05:16:14;;;;;;;22.07;15.00;;;;;;;20.27;100.00;99111.69;5055890;28;20256;-86
2022/06/24 05:18:39;;;;;;;22.40;15.23;;;;;;;18.04;100.00;98761.31;5072879;28;20612;-87
2022/06/24 05:21:04;;;;;;;26.40;16.50;;;;;;;20.34;100.00;99110.84;5056385;28;20193;-87
2022/06/24 05:23:30;;;;;;;25.40;14.77;;;;;;;18.83;100.00;98789.72;5056493;28;20543;-87
2022/06/24 05:25:55;;;;;;;16.47;10.60;;;;;;;21.28;100.00;99140.75;5056545;28;20662;-88
2022/06/24 05:28:21;;;;;;;15.07;10.97;;;;;;;18.98;99.87;98720.44;5055485;28;20166;-89
2022/06/24 05:30:53;;;;;;;15.80;10.50;;;;;;;20.89;100.00;99041.28;5072663;28;20233;-88
2022/06/24 05:33:19;;;;;;;16.60;10.57;;;;;;;20.43;100.00;98945.41;5058301;28;20170;-88
2022/06/24 05:35:44;;;;;;;13.63;9.63;;;;;;;19.97;100.00;98899.22;5056661;28;20166;-88
2022/06/24 05:38:10;;;;;;;17.83;9.47;;;;;;;20.47;96.89;98862.25;5057918;28;20551;-87
2022/06/24 05:40:35;;;;;;;12.07;8.90;;;;;;;22.29;95.22;99135.06;5057243;28;20546;-88
2022/06/24 05:43:01;;;;;;;15.00;9.10;;;;;;;19.09;96.45;98594.72;5057311;28;20181;-88
2022/06/24 05:45:26;;;;;;;11.47;7.90;;;;;;;20.84;100.00;98937.53;5061378;28;20173;-87
2022/06/24 05:47:52;;;;;;;14.17;7.90;;;;;;;20.45;100.00;98926.56;5061085;28;20201;-86
2022/06/24 05:50:17;;;;;;;13.80;8.07;;;;;;;19.61;98.84;98681.00;5064749;28;20205;-88
2022/06/24 05:55:27;;;;;;;16.27;7.67;;;;;;;21.61;99.82;98999.78;5063242;28;20176;-87
2022/06/24 05:57:52;;;;;;;10.57;7.83;;;;;;;22.13;100.00;99136.03;5060893;28;20552;-85
2022/06/24 06:00:18;;;;;;;10.33;7.73;;;;;;;21.23;100.00;98937.34;5059294;28;20610;-86
2022/06/24 06:02:43;;;;;;;12.97;7.67;;;;;;;22.18;100.00;99098.19;5060046;28;20654;-87
2022/06/24 06:05:09;;;;;;;11.33;7.63;;;;;;;23.18;94.50;99142.03;5056807;28;20656;-87
2022/06/24 06:07:34;;;;;;;11.67;7.23;;;;;;;22.78;95.94;99144.13;5058559;28;20169;-88
2022/06/24 06:09:59;;;;;;;11.57;7.30;;;;;;;23.00;92.62;99139.63;5058119;28;20231;-88
2022/06/24 06:12:25;;;;;;;9.10;6.57;;;;;;;21.78;86.73;98879.34;5057241;28;20184;-88
2022/06/24 06:14:50;;;;;;;9.90;6.83;;;;;;;22.85;84.09;99005.53;5060684;28;20161;-88
2022/06/24 06:17:16;;;;;;;10.63;6.57;;;;;;;22.74;82.79;98977.25;5060210;28;20161;-88
2022/06/24 06:19:41;;;;;;;12.43;6.80;;;;;;;23.42;84.12;99156.41;5058659;28;20158;-87
2022/06/24 06:22:06;;;;;;;8.93;7.13;;;;;;;23.76;81.79;99113.72;5060291;28;20166;-88
2022/06/24 06:24:32;;;;;;;9.27;6.93;;;;;;;24.19;80.05;99149.38;5059883;28;20177;-88
2022/06/24 06:26:58;;;;;;;9.90;6.27;;;;;;;24.24;79.35;99184.63;5060470;28;20252;-89
2022/06/24 06:29:24;;;;;;;8.67;6.60;;;;;;;23.57;82.90;99138.13;5056756;28;20169;-88
2022/06/24 06:31:52;;;;;;;11.10;6.93;;;;;;;23.40;83.56;99163.31;5057998;28;20630;-87
2022/06/24 06:34:19;;;;;;;13.60;6.63;;;;;;;23.36;83.14;99162.47;5032672;28;20913;-86
2022/06/24 06:36:47;;;;;;;9.27;6.80;;;;;;;22.71;82.53;99059.03;5048020;28;20216;-88
2022/06/24 06:39:12;;;;;;;10.03;6.30;;;;;;;22.71;80.41;98992.81;5051072;28;20208;-85
2022/06/24 06:41:38;;;;;;;12.57;6.40;;;;;;;22.81;80.22;98981.47;5050088;28;20184;-87
2022/06/24 06:44:03;;;;;;;15.53;6.60;;;;;;;24.22;79.30;99155.34;5057250;28;20221;-87
2022/06/24 06:46:29;;;;;;;10.13;6.80;;;;;;;23.83;80.89;99161.91;5053806;28;20179;-87
2022/06/24 06:48:54;;;;;;;9.80;7.17;;;;;;;22.77;81.25;98986.72;5050585;28;20941;-87
2022/06/24 06:51:20;;;;;;;9.63;6.43;;;;;;;23.19;82.06;99084.31;5051005;28;20288;-88
2022/06/24 06:53:45;;;;;;;12.90;6.40;;;;;;;23.38;79.68;99044.47;5056705;28;20203;-86
2022/06/24 06:56:11;;;;;;;9.53;6.20;;;;;;;24.16;79.59;99183.03;5054973;28;20184;-86
2022/06/24 06:58:36;;;;;;;11.80;7.13;;;;;;;24.42;79.12;99124.00;5054103;28;20268;-88
2022/06/24 07:01:02;;;;;;;9.40;6.97;;;;;;;23.64;80.37;99015.69;5055479;28;20181;-85
2022/06/24 07:03:27;;;;;;;12.63;7.20;;;;;;;23.44;79.14;98950.50;5055039;28;20215;-87
2022/06/24 07:05:52;;;;;;;13.97;7.37;;;;;;;24.97;78.54;99167.97;5056140;28;20189;-89
2022/06/24 07:08:18;;;;;;;10.47;7.10;;;;;;;23.50;77.55;98906.50;5055937;28;20286;-88
2022/06/24 07:10:45;;;;;;;10.87;7.43;;;;;;;24.50;79.79;99156.59;5052870;28;20224;-86
2022/06/24 07:13:11;;;;;;;13.77;7.53;;;;;;;24.70;79.41;99145.06;5052939;28;20200;-87
2022/06/24 07:15:38;;;;;;;11.50;7.20;;;;;;;25.18;75.65;99080.31;5053600;28;20181;-85
2022/06/24 07:18:04;;;;;;;10.73;6.97;;;;;;;24.84;73.45;99032.63;5052250;28;20689;-87
2022/06/24 07:20:30;;;;;;;8.93;6.30;;;;;;;23.71;77.33;98977.66;5057095;28;20185;-87
2022/06/24 07:22:56;;;;;;;9.60;6.97;;;;;;;23.51;76.88;98975.41;5054843;28;20181;-85
2022/06/24 07:25:21;;;;;;;9.83;6.73;;;;;;;23.39;75.18;98890.31;5050679;28;20208;-88
2022/06/24 07:27:47;;;;;;;10.67;7.10;;;;;;;23.58;76.60;98964.09;5051766;28;20173;-87
2022/06/24 07:30:12;;;;;;;8.43;6.40;;;;;;;24.98;74.68;99048.75;5051987;28;20197;-87
2022/06/24 07:32:38;;;;;;;10.37;6.73;;;;;;;25.10;75.32;99154.75;5053292;28;20181;-87
2022/06/24 07:35:04;;;;;;;12.77;7.50;;;;;;;24.96;74.76;99040.16;5061457;28;20236;-86
2022/06/24 07:37:29;;;;;;;14.30;7.07;;;;;;;24.99;73.37;99003.84;5066884;28;20191;-86
2022/06/24 07:39:55;;;;;;;11.40;7.13;;;;;;;25.86;73.31;99127.28;5058668;28;20469;-86
2022/06/24 07:42:20;;;;;;;11.93;7.00;;;;;;;25.54;70.72;98961.19;5054747;28;20182;-86
2022/06/24 07:44:47;;;;;;;12.15;7.25;;;;;;;26.80;70.75;99135.44;5053184;28;20537;-86
2022/06/24 07:47:13;;;;;;;11.20;7.30;;;;;;;27.23;69.33;99136.00;5052418;28;20230;-87
2022/06/24 07:49:39;;;;;;;11.32;6.65;;;;;;;27.27;68.71;99129.81;5053736;28;20203;-86
2022/06/24 07:52:07;;;;;;;7.85;6.18;;;;;;;25.84;67.71;98989.00;5052619;28;20184;-85
2022/06/24 07:54:32;;;;;;;12.23;6.68;;;;;;;26.78;68.07;99132.88;5053595;28;20300;-86
2022/06/24 07:56:58;;;;;;;14.85;6.90;;;;;;;27.42;66.91;99126.81;5052188;28;20536;-88
2022/06/24 07:59:31;;;;;;;10.32;6.82;;;;;;;27.51;66.98;99126.56;5054086;28;20580;-87
2022/06/24 08:01:58;;;;;;;12.30;7.65;;;;;;;26.06;67.74;98880.34;5053290;28;20195;-87
2022/06/24 08:04:25;;;;;;;9.25;7.20;;;;;;;27.56;67.26;99116.00;5056334;28;20220;-87
2022/06/24 08:06:52;;;;;;;7.90;6.72;;;;;;;26.00;66.39;98886.53;5056838;28;20257;-88
2022/06/24 08:09:22;;;;;;;8.20;6.40;;;;;;;26.73;66.52;99123.47;5058859;28;20349;-85
2022/06/24 08:11:48;;;;;;;9.18;6.68;;;;;;;26.54;66.56;99007.97;5058962;28;20197;-87
2022/06/24 08:14:14;;;;;;;11.32;6.90;;;;;;;26.60;65.52;98967.09;5054367;28;20188;-87
2022/06/24 08:16:40;;;;;;;9.18;6.40;;;;;;;27.80;65.59;99132.66;5070139;28;20185;-86
2022/06/24 08:19:06;;;;;;;8.98;6.85;;;;;;;25.89;67.64;98957.75;5074095;28;20725;-86
2022/06/24 08:21:31;;;;;;;8.55;7.03;;;;;;;27.57;66.15;99088.25;5073491;28;20255;-87
2022/06/24 08:23:57;;;;;;;12.70;7.00;;;;;;;27.73;65.05;99107.69;5075773;28;20191;-87
2022/06/24 08:26:22;;;;;;;8.82;6.13;;;;;;;27.20;65.55;99141.28;5079370;28;20178;-86
2022/06/24 08:28:47;;;;;;;10.07;5.70;;;;;;;26.75;64.69;99047.22;5067317;28;20179;-87
2022/06/24 08:31:13;;;;;;;10.02;6.50;;;;;;;26.77;63.78;98995.22;5054049;28;20626;-88
2022/06/24 08:33:38;;;;;;;8.55;6.10;;;;;;;27.09;63.63;99036.75;5055709;28;20193;-88
2022/06/24 08:36:05;;;;;;;10.43;6.47;;;;;;;28.20;62.47;99121.88;5043107;28;20262;-89
2022/06/24 08:38:30;;;;;;;7.35;6.07;;;;;;;28.07;60.23;99032.94;5057661;28;20192;-89
2022/06/24 08:41:00;;;;;;;7.40;5.82;;;;;;;28.10;61.13;99135.19;5059964;28;20553;-87
2022/06/24 08:43:30;;;;;;;7.05;5.70;;;;;;;27.53;59.29;98937.50;5054333;28;20831;-88
2022/06/24 08:45:57;;;;;;;8.75;5.85;;;;;;;28.12;57.53;98991.97;5053548;28;20214;-87
2022/06/24 08:48:25;;;;;;;7.90;5.88;;;;;;;26.57;57.86;98841.69;5053480;28;20180;-83
2022/06/24 08:50:51;;;;;;;9.82;5.63;;;;;;;28.24;58.64;99107.88;5053392;28;20211;-87
2022/06/24 08:53:21;;;;;;;7.53;5.60;;;;;;;28.44;57.95;99134.09;5054327;28;20202;-88
2022/06/24 08:55:50;;;;;;;7.13;5.47;;;;;;;28.71;56.94;99094.13;5055127;28;20660;-87
2022/06/24 08:58:17;;;;;;;6.60;5.43;;;;;;;27.93;58.96;99119.22;5052333;28;20274;-85
2022/06/24 09:00:44;;;;;;;8.02;5.78;;;;;;;28.76;57.09;99126.09;5053457;28;20279;-88
2022/06/24 09:03:09;;;;;;;6.47;5.10;;;;;;;28.26;55.32;99135.56;5051223;28;20236;-88
2022/06/24 09:05:36;;;;;;;7.32;5.00;;;;;;;27.67;58.06;99048.91;5050751;28;20200;-87
2022/06/24 09:08:06;;;;;;;8.88;5.00;;;;;;;28.85;56.54;99119.72;5052299;28;20224;-89
2022/06/24 09:10:35;;;;;;;8.02;4.63;;;;;;;28.55;55.30;99119.81;5052666;28;20211;-88
2022/06/24 09:13:01;;;;;;;8.88;4.65;;;;;;;28.47;54.67;99079.31;5051961;28;20188;-88
2022/06/24 09:15:27;;;;;;;7.35;4.93;;;;;;;28.97;51.93;99060.19;5050242;28;20207;-86
2022/06/24 09:17:54;;;;;;;6.95;5.03;;;;;;;28.40;51.74;98935.44;5051542;28;20181;-86
2022/06/24 09:20:24;;;;;;;9.02;5.10;;;;;;;29.33;50.95;99067.59;5053220;28;20178;-87
2022/06/24 09:23:01;;;;;;;7.82;4.60;;;;;;;29.76;49.28;99094.59;5052521;28;20179;-88
2022/06/24 09:25:26;;;;;;;10.05;4.95;;;;;;;29.31;49.95;98965.09;5051789;28;20334;-88
2022/06/24 09:27:52;;;;;;;7.50;4.80;;;;;;;28.20;50.17;99030.75;5055223;28;20682;-85
2022/06/24 09:30:18;;;;;;;7.32;4.65;;;;;;;29.29;50.13;99120.78;5052586;28;20762;-88
2022/06/24 09:32:54;;;;;;;5.05;4.07;;;;;;;29.62;47.21;99129.97;5052727;28;20185;-87
2022/06/24 09:35:22;;;;;;;7.15;4.32;;;;;;;29.82;47.43;99130.09;5042591;28;20264;-87
2022/06/24 09:37:49;;;;;;;7.07;4.68;;;;;;;28.68;47.24;99032.56;5060818;28;20200;-87
2022/06/24 09:40:18;;;;;;;6.28;4.32;;;;;;;30.06;46.13;99123.06;5057184;28;20185;-88
2022/06/24 09:43:01;;;;;;;8.15;5.10;;;;;;;29.61;44.65;99018.69;5060908;28;20239;-88
2022/06/24 09:45:43;;;;;;;5.75;4.10;;;;;;;29.77;44.56;99045.88;5064812;28;20212;-88
2022/06/24 09:48:09;;;;;;;4.70;4.10;;;;;;;29.02;45.37;99032.19;5062538;28;20188;-86
2022/06/24 09:50:35;;;;;;;5.93;3.80;;;;;;;29.65;44.11;99120.25;5060262;28;20201;-89
2022/06/24 09:53:02;;;;;;;8.25;4.18;;;;;;;29.49;41.62;99030.44;5059364;28;20214;-88
2022/06/24 09:55:28;;;;;;;4.43;3.50;;;;;;;29.25;36.89;99028.78;5057214;28;20180;-87
2022/06/24 09:57:56;;;;;;;7.18;3.00;;;;;;;29.08;34.13;98978.97;5061138;28;20187;-88
2022/06/24 10:03:17;;;;;;;5.05;3.88;;;;;;;30.00;38.59;99091.97;5035716;28;20260;-85
2022/06/24 10:05:48;;;;;;;5.60;3.58;;;;;;;29.91;35.64;99076.69;5035354;28;20749;-88
2022/06/24 10:08:19;;;;;;;5.10;3.08;;;;;;;30.00;33.61;99105.88;5031849;28;20221;-90
2022/06/24 10:10:46;;;;;;;8.95;3.90;;;;;;;29.91;37.32;99090.59;5015869;28;20240;-88
2022/06/24 10:13:24;;;;;;;5.18;3.90;;;;;;;29.64;38.68;99066.38;5035180;28;20199;-88
2022/06/24 10:15:50;;;;;;;9.38;4.28;;;;;;;29.83;38.09;98956.06;5034146;28;20766;-86
2022/06/24 10:18:19;;;;;;;6.47;4.07;;;;;;;30.22;39.50;99088.44;5024716;28;20215;-87
2022/06/24 10:20:46;;;;;;;4.63;4.00;;;;;;;29.93;38.84;99035.69;5025419;28;20398;-88
2022/06/24 10:23:37;;;;;;;11.15;4.20;;;;;;;30.23;37.35;99084.91;5042650;28;20185;-85
2022/06/24 10:26:14;;;;;;;4.82;3.72;;;;;;;29.80;37.32;99049.22;5039039;28;20208;-89
2022/06/24 10:29:03;;;;;;;4.93;3.75;;;;;;;29.90;37.56;99093.25;5036836;28;20559;-87
2022/06/24 10:31:52;;;;;;;3.88;3.50;;;;;;;30.19;36.93;99088.56;5034622;28;20301;-85
2022/06/24 10:34:29;;;;;;;4.97;3.53;;;;;;;30.46;36.64;99086.63;5030517;28;20686;-87
2022/06/24 10:37:10;;;;;;;4.65;3.80;;;;;;;29.98;35.78;99080.72;5004262;28;20694;-87
2022/06/24 10:39:47;;;;;;;5.80;3.70;;;;;;;29.41;36.39;99019.47;5041665;28;20210;-87
2022/06/24 10:42:15;;;;;;;6.18;4.00;;;;;;;30.22;35.96;99077.13;5036865;28;21441;-85
2022/06/24 10:44:59;;;;;;;4.45;3.92;;;;;;;30.23;36.29;99084.91;5040470;28;20202;-84
2022/06/24 10:47:39;;;;;;;4.72;3.78;;;;;;;29.49;35.07;98928.69;5056547;28;20184;-87
2022/06/24 10:50:17;;;;;;;5.75;3.70;;;;;;;30.42;35.14;99040.63;5057064;28;20207;-88
2022/06/24 10:52:51;;;;;;;7.88;3.70;;;;;;;30.73;35.07;99079.38;5055391;28;20192;-87
2022/06/24 10:55:28;;;;;;;4.95;3.72;;;;;;;30.05;34.15;99079.59;5054290;28;20255;-88
2022/06/24 10:57:57;;;;;;;4.25;3.88;;;;;;;30.04;34.79;99076.13;5055097;28;20203;-87
2022/06/24 11:00:27;;;;;;;4.72;4.18;;;;;;;29.46;35.07;98961.88;5057738;28;20247;-88
2022/06/24 11:03:11;;;;;;;5.57;4.00;;;;;;;30.23;34.08;99061.41;5056231;28;20190;-85
2022/06/24 11:05:40;;;;;;;6.75;3.80;;;;;;;30.20;34.78;99085.03;5053192;28;20187;-87
2022/06/24 11:08:12;;;;;;;5.10;3.80;;;;;;;29.70;35.70;99073.97;5056328;28;20311;-87
2022/06/24 11:10:37;;;;;;;4.28;3.63;;;;;;;29.72;35.83;99089.56;5054622;28;20261;-86
2022/06/24 11:13:03;;;;;;;4.93;3.90;;;;;;;30.11;35.38;99080.19;5058691;28;20179;-85
2022/06/24 11:15:52;;;;;;;5.03;3.83;;;;;;;29.37;35.93;99014.38;5055442;28;20183;-87
2022/06/24 11:18:27;;;;;;;6.30;3.90;;;;;;;29.99;35.73;99088.53;5069041;28;20371;-84
2022/06/24 11:21:08;;;;;;;4.07;3.60;;;;;;;29.55;36.04;98944.09;5067019;28;20192;-85
2022/06/24 11:23:37;;;;;;;5.88;3.60;;;;;;;30.41;35.16;99031.06;5074596;28;20198;-83
2022/06/24 11:26:13;;;;;;;4.18;3.70;;;;;;;30.16;34.46;99073.00;5066984;28;20216;-85
2022/06/24 11:28:40;;;;;;;4.82;3.80;;;;;;;30.15;35.66;99037.38;5062817;28;20739;-86
2022/06/24 11:31:15;;;;;;;4.25;3.72;;;;;;;30.64;35.66;99079.75;5060152;28;20212;-87
2022/06/24 11:33:41;;;;;;;8.35;3.90;;;;;;;30.46;35.29;98992.56;5060641;28;20192;-89
2022/06/24 11:36:08;;;;;;;6.40;3.92;;;;;;;31.10;34.71;99058.53;5061103;28;20296;-86